Time;durP1;ratioP1;P1;durP2;ratioP2;P2;SDS_P1;SDS_P2;PMS_P1;PMS_P2;Temp;Humidity;BMP_temperature;BMP_pressure;BME280_temperature;BME280_humidity;BME280_pressure;Samples;Min_cycle;Max_cycle;Signal;HPM_P1;HPM_P2
2021/09/29 00:00:57;;;;;;;10.13;5.10;;;14.60;99.90;;;;;;5076186;28;20016;-76
2021/09/29 00:03:22;;;;;;;8.40;5.00;;;14.60;99.90;;;;;;5073374;28;20392;-76
2021/09/29 00:05:48;;;;;;;10.40;5.20;;;14.50;99.90;;;;;;5077341;28;20037;-79
2021/09/29 00:08:14;;;;;;;10.27;5.72;;;14.60;99.90;;;;;;5073364;28;20028;-79
2021/09/29 00:10:42;;;;;;;11.80;5.88;;;14.50;99.90;;;;;;5073988;28;20104;-79
2021/09/29 00:13:08;;;;;;;8.77;4.70;;;14.50;99.90;;;;;;5074676;28;20072;-78
2021/09/29 00:15:34;;;;;;;9.73;5.03;;;14.60;99.90;;;;;;5070896;28;20024;-78
2021/09/29 00:18:00;;;;;;;9.63;5.13;;;14.50;99.90;;;;;;5062857;28;20016;-78
2021/09/29 00:20:26;;;;;;;9.80;5.70;;;14.60;99.90;;;;;;5076573;28;20388;-78
2021/09/29 00:22:51;;;;;;;12.82;6.28;;;14.60;99.90;;;;;;5075826;28;20477;-78
2021/09/29 00:25:20;;;;;;;9.07;5.45;;;14.60;99.90;;;;;;5080913;28;20020;-79
2021/09/29 00:27:46;;;;;;;6.63;4.82;;;14.60;99.90;;;;;;5071513;28;20032;-79
2021/09/29 00:30:13;;;;;;;7.72;5.20;;;14.60;99.90;;;;;;5072386;28;20497;-77
2021/09/29 00:32:41;;;;;;;11.00;4.93;;;14.60;99.90;;;;;;5072855;28;20473;-79
2021/09/29 00:35:09;;;;;;;8.77;4.72;;;14.60;99.90;;;;;;5071709;28;20029;-79
2021/09/29 00:37:35;;;;;;;9.88;4.82;;;14.60;99.90;;;;;;5069294;28;20017;-79
2021/09/29 00:40:01;;;;;;;11.77;5.43;;;14.60;99.90;;;;;;5073556;28;20024;-79
2021/09/29 00:42:27;;;;;;;11.40;5.82;;;14.60;99.90;;;;;;5070299;28;20048;-79
2021/09/29 00:44:53;;;;;;;8.05;5.78;;;14.60;99.90;;;;;;5071720;28;20114;-79
2021/09/29 00:47:19;;;;;;;8.63;5.38;;;14.60;99.90;;;;;;5074551;28;20020;-79
2021/09/29 00:49:46;;;;;;;11.20;5.45;;;14.60;99.90;;;;;;5072952;28;20106;-78
2021/09/29 00:52:14;;;;;;;12.55;5.90;;;14.50;99.90;;;;;;5071599;28;20021;-78
2021/09/29 00:54:41;;;;;;;10.80;5.80;;;14.50;99.90;;;;;;5072002;28;20028;-79
2021/09/29 00:57:08;;;;;;;11.95;5.28;;;14.50;99.90;;;;;;5071676;28;20032;-79
2021/09/29 00:59:35;;;;;;;11.40;5.85;;;14.50;99.90;;;;;;5078537;28;20016;-79
2021/09/29 01:02:00;;;;;;;8.77;4.25;;;14.50;99.90;;;;;;5077245;28;20108;-78
2021/09/29 01:04:27;;;;;;;9.55;4.90;;;14.50;99.90;;;;;;5076492;28;20120;-79
2021/09/29 01:07:10;;;;;;;7.20;4.90;;;14.50;99.90;;;;;;5070655;28;20021;-80
2021/09/29 01:09:58;;;;;;;12.20;5.22;;;14.40;99.90;;;;;;5080663;28;20069;-79
2021/09/29 01:12:32;;;;;;;9.55;5.55;;;14.50;99.90;;;;;;5071508;28;20020;-79
2021/09/29 01:15:01;;;;;;;11.45;5.40;;;14.60;99.90;;;;;;5074027;28;20067;-79
2021/09/29 01:17:29;;;;;;;8.63;4.97;;;14.60;99.90;;;;;;5071544;28;20103;-79
2021/09/29 01:20:04;;;;;;;8.05;4.70;;;14.50;99.90;;;;;;5074495;28;20052;-79
2021/09/29 01:23:00;;;;;;;7.63;5.13;;;14.50;99.90;;;;;;5076118;28;20050;-80
2021/09/29 01:26:06;;;;;;;11.32;5.20;;;14.50;99.90;;;;;;5078631;28;20036;-79
2021/09/29 01:28:48;;;;;;;10.40;5.18;;;14.50;99.90;;;;;;5077665;28;20016;-79
2021/09/29 01:31:16;;;;;;;10.07;5.28;;;14.50;99.90;;;;;;5080344;28;20485;-79
2021/09/29 01:33:43;;;;;;;8.70;4.50;;;14.50;99.90;;;;;;5076274;28;20017;-78
2021/09/29 01:36:10;;;;;;;8.15;5.07;;;14.50;99.90;;;;;;5073171;28;20052;-79
2021/09/29 01:38:38;;;;;;;7.45;4.45;;;14.40;99.90;;;;;;5077149;28;20027;-79
2021/09/29 01:41:08;;;;;;;5.53;4.65;;;14.40;99.90;;;;;;5076689;28;20021;-78
2021/09/29 01:43:34;;;;;;;9.27;5.10;;;14.40;99.90;;;;;;5075298;28;20071;-79
2021/09/29 01:46:00;;;;;;;10.23;5.35;;;14.30;99.90;;;;;;5074314;28;20024;-77
2021/09/29 01:48:26;;;;;;;11.65;4.90;;;14.30;99.90;;;;;;5073471;28;20455;-79
2021/09/29 01:50:57;;;;;;;9.40;4.97;;;14.30;99.90;;;;;;5078259;28;20469;-78
2021/09/29 01:53:28;;;;;;;8.40;4.80;;;14.30;99.90;;;;;;5074181;28;20070;-79
2021/09/29 01:55:54;;;;;;;10.20;5.10;;;14.20;99.90;;;;;;5078003;28;20039;-79
2021/09/29 01:58:20;;;;;;;12.20;4.95;;;14.20;99.90;;;;;;5073964;28;20021;-79
2021/09/29 02:00:45;;;;;;;7.15;4.88;;;14.30;99.90;;;;;;5078040;28;20487;-79
2021/09/29 02:03:11;;;;;;;11.68;5.00;;;14.30;99.90;;;;;;5077086;28;20449;-79
2021/09/29 02:05:37;;;;;;;12.57;5.63;;;14.20;99.90;;;;;;5074426;28;20087;-80
2021/09/29 02:08:06;;;;;;;7.53;4.40;;;14.20;99.90;;;;;;5076178;28;20131;-79
2021/09/29 02:10:32;;;;;;;10.75;5.35;;;14.30;99.90;;;;;;5077277;28;20778;-79
2021/09/29 02:12:58;;;;;;;8.98;4.40;;;14.20;99.90;;;;;;5075368;28;20465;-79
2021/09/29 02:15:24;;;;;;;7.13;5.07;;;14.20;99.90;;;;;;5076319;28;20028;-79
2021/09/29 02:17:50;;;;;;;12.88;5.88;;;14.20;99.90;;;;;;5071204;28;20031;-79
2021/09/29 02:20:16;;;;;;;9.48;5.32;;;14.30;99.90;;;;;;5068514;28;20052;-80
2021/09/29 02:22:42;;;;;;;8.32;4.78;;;14.30;99.90;;;;;;5077219;28;20103;-79
2021/09/29 02:25:09;;;;;;;12.70;4.50;;;14.10;99.90;;;;;;5074515;28;20401;-79
2021/09/29 02:27:35;;;;;;;10.30;4.60;;;14.10;99.90;;;;;;5072341;28;20025;-79
2021/09/29 02:30:01;;;;;;;11.07;5.40;;;14.20;99.90;;;;;;5077849;28;20027;-79
2021/09/29 02:32:27;;;;;;;6.05;4.65;;;14.20;99.90;;;;;;5073059;28;20079;-80
2021/09/29 02:34:52;;;;;;;9.02;5.50;;;14.10;99.90;;;;;;5072542;28;20028;-79
2021/09/29 02:37:18;;;;;;;8.55;5.05;;;14.10;99.90;;;;;;5076683;28;20048;-78
2021/09/29 02:39:44;;;;;;;10.55;4.90;;;14.10;99.90;;;;;;5068683;28;20116;-79
2021/09/29 02:42:11;;;;;;;8.48;4.57;;;14.20;99.90;;;;;;5069772;28;20028;-79
2021/09/29 02:44:36;;;;;;;8.55;4.88;;;14.20;99.90;;;;;;5074563;28;20122;-78
2021/09/29 02:47:02;;;;;;;9.20;4.10;;;14.20;99.90;;;;;;5077365;28;20033;-79
2021/09/29 02:49:28;;;;;;;13.77;5.07;;;14.30;99.90;;;;;;5070002;28;20017;-79
2021/09/29 02:51:54;;;;;;;9.43;4.88;;;14.30;99.90;;;;;;5072870;28;20435;-79
2021/09/29 02:54:20;;;;;;;5.10;4.20;;;14.30;99.90;;;;;;5066839;28;20016;-79
2021/09/29 02:56:45;;;;;;;10.13;4.70;;;14.20;99.90;;;;;;5080469;28;20036;-79
2021/09/29 02:59:11;;;;;;;7.10;4.22;;;14.30;99.90;;;;;;5075949;28;20055;-79
2021/09/29 03:01:38;;;;;;;8.40;4.60;;;14.30;99.90;;;;;;5077949;28;20020;-78
2021/09/29 03:04:04;;;;;;;11.70;4.72;;;14.20;99.90;;;;;;5080884;28;20044;-79
2021/09/29 03:06:30;;;;;;;7.40;4.28;;;14.30;99.90;;;;;;5070913;28;20021;-79
2021/09/29 03:08:56;;;;;;;9.85;4.90;;;14.20;99.90;;;;;;5080455;28;20033;-76
2021/09/29 03:11:21;;;;;;;6.97;4.25;;;14.30;99.90;;;;;;5076859;28;20020;-78
2021/09/29 03:13:47;;;;;;;11.50;4.80;;;14.30;99.90;;;;;;5082511;28;20460;-79
2021/09/29 03:16:14;;;;;;;11.55;4.18;;;14.20;99.90;;;;;;5072255;28;20066;-78
2021/09/29 03:18:40;;;;;;;8.90;4.40;;;14.20;99.90;;;;;;5080675;28;20021;-79
2021/09/29 03:21:06;;;;;;;9.73;4.50;;;14.20;99.90;;;;;;5074949;28;20021;-77
2021/09/29 03:23:32;;;;;;;9.93;4.75;;;14.20;99.90;;;;;;5074303;28;20055;-77
2021/09/29 03:25:57;;;;;;;8.15;4.28;;;14.20;99.90;;;;;;5078412;28;20396;-77
2021/09/29 03:28:23;;;;;;;6.45;3.80;;;14.10;99.90;;;;;;5069840;28;20052;-77
2021/09/29 03:30:49;;;;;;;9.65;4.32;;;14.20;99.90;;;;;;5080024;28;20419;-76
2021/09/29 03:33:15;;;;;;;13.25;4.32;;;14.30;99.90;;;;;;5076221;28;20031;-77
2021/09/29 03:35:41;;;;;;;7.45;4.85;;;14.30;99.90;;;;;;5077157;28;20032;-77
2021/09/29 03:38:07;;;;;;;8.23;4.00;;;14.40;99.90;;;;;;5079622;28;20107;-77
2021/09/29 03:40:32;;;;;;;7.97;4.05;;;14.30;99.90;;;;;;5072753;28;20103;-77
2021/09/29 03:42:58;;;;;;;11.27;3.88;;;14.40;99.90;;;;;;5079851;28;20041;-78
2021/09/29 03:45:23;;;;;;;6.53;4.10;;;14.30;99.90;;;;;;5076933;28;20020;-75
2021/09/29 03:47:49;;;;;;;8.13;4.10;;;14.40;99.90;;;;;;5073065;28;20029;-76
2021/09/29 03:50:15;;;;;;;9.90;4.00;;;14.40;99.90;;;;;;5080441;28;20025;-77
2021/09/29 03:52:41;;;;;;;8.55;4.43;;;14.40;99.90;;;;;;5071100;28;20016;-77
2021/09/29 03:55:08;;;;;;;6.63;3.13;;;14.40;99.90;;;;;;5069654;28;20396;-78
2021/09/29 03:57:34;;;;;;;6.47;3.45;;;14.50;99.90;;;;;;5056504;28;20028;-78
2021/09/29 04:00:01;;;;;;;6.90;4.35;;;14.50;99.90;;;;;;5051959;28;20025;-77
2021/09/29 04:02:26;;;;;;;9.05;3.90;;;14.60;99.90;;;;;;5070942;28;20535;-77
2021/09/29 04:04:52;;;;;;;7.68;3.78;;;14.60;99.90;;;;;;5071745;28;20036;-76
2021/09/29 04:07:18;;;;;;;7.65;3.25;;;14.60;99.90;;;;;;5068097;28;20173;-78
2021/09/29 04:09:46;;;;;;;8.18;3.80;;;14.60;99.90;;;;;;5073758;28;20029;-77
2021/09/29 04:12:13;;;;;;;6.32;3.30;;;14.60;99.90;;;;;;5066382;28;20023;-78
2021/09/29 04:14:39;;;;;;;6.63;3.13;;;14.60;99.90;;;;;;5069518;28;20125;-79
2021/09/29 04:17:05;;;;;;;8.32;2.80;;;14.60;99.90;;;;;;5070521;28;20473;-80
2021/09/29 04:19:31;;;;;;;6.93;2.83;;;14.60;99.90;;;;;;5076089;28;20035;-78
2021/09/29 04:21:57;;;;;;;7.93;3.30;;;14.60;99.90;;;;;;5067425;28;20028;-78
2021/09/29 04:24:22;;;;;;;8.88;3.05;;;14.60;99.90;;;;;;5070436;28;20039;-78
2021/09/29 04:26:48;;;;;;;4.35;2.90;;;14.60;99.90;;;;;;5070963;28;20028;-77
2021/09/29 04:29:15;;;;;;;8.73;2.67;;;14.60;99.90;;;;;;5072906;28;20025;-79
2021/09/29 04:31:40;;;;;;;5.07;2.97;;;14.70;99.90;;;;;;5071917;28;20021;-78
2021/09/29 04:34:06;;;;;;;5.57;2.70;;;14.60;99.90;;;;;;5071821;28;20377;-77
2021/09/29 04:36:31;;;;;;;9.50;3.00;;;14.60;99.90;;;;;;5068227;28;20028;-77
2021/09/29 04:38:57;;;;;;;9.05;3.35;;;14.60;99.90;;;;;;5063219;28;20103;-77
2021/09/29 04:41:23;;;;;;;8.77;3.03;;;14.60;99.90;;;;;;5062788;28;20021;-77
2021/09/29 04:43:49;;;;;;;7.65;2.78;;;14.60;99.90;;;;;;5069241;28;20025;-77
2021/09/29 04:46:15;;;;;;;7.78;3.33;;;14.70;99.90;;;;;;5071074;28;20024;-76
2021/09/29 04:48:41;;;;;;;5.53;2.92;;;14.70;99.90;;;;;;5070269;28;20027;-77
2021/09/29 04:51:06;;;;;;;6.72;2.90;;;14.70;99.90;;;;;;5074944;28;20028;-76
2021/09/29 04:53:32;;;;;;;10.75;3.28;;;14.70;99.90;;;;;;5077596;28;20496;-76
2021/09/29 04:55:59;;;;;;;7.03;3.40;;;14.60;99.90;;;;;;5070900;28;20029;-77
2021/09/29 04:58:26;;;;;;;5.72;3.45;;;14.70;99.90;;;;;;5073623;28;20473;-77
2021/09/29 05:00:52;;;;;;;8.65;3.28;;;14.80;99.90;;;;;;5069489;28;20013;-78
2021/09/29 05:03:22;;;;;;;6.60;3.42;;;14.70;99.90;;;;;;5078808;28;20032;-77
2021/09/29 05:05:47;;;;;;;6.43;3.08;;;14.70;99.90;;;;;;5077405;28;20441;-77
2021/09/29 05:08:39;;;;;;;7.35;3.17;;;14.80;99.90;;;;;;5080004;28;20563;-77
2021/09/29 05:11:28;;;;;;;8.77;2.88;;;14.70;99.90;;;;;;5069540;28;20055;-77
2021/09/29 05:13:55;;;;;;;12.63;3.80;;;14.60;99.90;;;;;;5082729;28;20103;-77
2021/09/29 05:16:20;;;;;;;6.30;3.30;;;14.60;99.90;;;;;;5075554;28;20046;-77
2021/09/29 05:18:46;;;;;;;6.03;3.35;;;14.60;99.90;;;;;;5081470;28;20029;-78
2021/09/29 05:21:12;;;;;;;8.85;3.10;;;14.70;99.90;;;;;;5082394;28;20397;-76
2021/09/29 05:23:37;;;;;;;7.18;3.67;;;14.60;99.90;;;;;;5077779;28;20100;-79
2021/09/29 05:26:03;;;;;;;11.18;4.20;;;14.70;99.90;;;;;;5077582;28;20043;-78
2021/09/29 05:28:34;;;;;;;11.10;4.03;;;14.70;99.90;;;;;;5087760;28;20023;-79
2021/09/29 05:30:59;;;;;;;5.80;3.60;;;14.70;99.90;;;;;;5078766;28;20024;-78
2021/09/29 05:33:25;;;;;;;10.93;3.72;;;14.70;99.90;;;;;;5083166;28;20021;-77
2021/09/29 05:35:51;;;;;;;8.13;3.63;;;14.70;99.90;;;;;;5070479;28;20029;-76
2021/09/29 05:38:18;;;;;;;8.35;3.97;;;14.70;99.90;;;;;;5074633;28;20064;-77
2021/09/29 05:40:43;;;;;;;9.48;3.95;;;14.70;99.90;;;;;;5076824;28;20054;-77
2021/09/29 05:43:09;;;;;;;11.25;3.80;;;14.70;99.90;;;;;;5077739;28;20119;-76
2021/09/29 05:45:35;;;;;;;11.60;4.45;;;14.70;99.90;;;;;;5083368;28;20077;-76
2021/09/29 05:48:01;;;;;;;14.45;4.53;;;14.70;99.90;;;;;;5076775;28;20032;-76
2021/09/29 05:50:26;;;;;;;7.70;3.90;;;14.70;99.90;;;;;;5074754;28;20457;-76
2021/09/29 05:52:52;;;;;;;7.65;3.70;;;14.80;99.90;;;;;;5080361;28;20029;-76
2021/09/29 05:55:18;;;;;;;5.85;3.58;;;14.70;99.90;;;;;;5073911;28;20100;-77
2021/09/29 05:57:43;;;;;;;9.07;4.60;;;14.70;99.90;;;;;;5077783;28;20040;-77
2021/09/29 06:00:10;;;;;;;7.85;4.15;;;14.70;99.90;;;;;;5073170;28;20043;-76
2021/09/29 06:02:35;;;;;;;6.95;3.58;;;14.80;99.90;;;;;;5076836;28;20016;-76
2021/09/29 06:05:01;;;;;;;15.93;3.90;;;14.70;99.90;;;;;;5080200;28;20549;-75
2021/09/29 06:07:26;;;;;;;8.02;4.10;;;14.60;99.90;;;;;;5080510;28;20025;-75
2021/09/29 06:09:52;;;;;;;7.93;4.07;;;14.70;99.90;;;;;;5072091;28;20469;-76
2021/09/29 06:12:18;;;;;;;4.45;3.60;;;14.70;99.90;;;;;;5059729;28;20074;-76
2021/09/29 06:14:49;;;;;;;7.28;3.35;;;14.70;99.90;;;;;;5063702;28;20068;-75
2021/09/29 06:17:24;;;;;;;11.57;4.32;;;14.70;99.90;;;;;;5066586;28;20037;-75
2021/09/29 06:19:54;;;;;;;7.18;4.13;;;14.60;99.90;;;;;;5072130;28;20019;-76
2021/09/29 06:22:22;;;;;;;16.10;4.38;;;14.60;99.90;;;;;;5067715;28;20024;-76
2021/09/29 06:24:47;;;;;;;9.20;4.40;;;14.70;99.90;;;;;;5072208;28;20072;-73
2021/09/29 06:27:13;;;;;;;9.45;4.28;;;14.70;99.90;;;;;;5070696;28;20071;-73
2021/09/29 06:29:40;;;;;;;12.45;4.78;;;14.80;99.90;;;;;;5075020;28;20784;-77
2021/09/29 06:32:06;;;;;;;9.10;3.97;;;14.80;99.90;;;;;;5070587;28;20469;-74
2021/09/29 06:34:32;;;;;;;12.98;5.43;;;14.70;99.90;;;;;;5076052;28;20107;-74
2021/09/29 06:36:57;;;;;;;18.15;4.80;;;14.60;99.90;;;;;;5071258;28;20095;-75
2021/09/29 06:39:23;;;;;;;10.65;4.72;;;14.40;99.90;;;;;;5075458;28;20027;-75
2021/09/29 06:41:49;;;;;;;10.43;3.85;;;14.40;99.90;;;;;;5072752;28;20123;-75
2021/09/29 06:44:15;;;;;;;8.20;4.03;;;14.40;99.90;;;;;;5074416;28;20041;-77
2021/09/29 06:46:41;;;;;;;8.25;4.25;;;14.40;99.90;;;;;;5073725;28;20024;-76
2021/09/29 06:49:06;;;;;;;10.98;4.72;;;14.50;99.90;;;;;;5071000;28;20469;-74
2021/09/29 06:51:32;;;;;;;9.73;4.03;;;14.60;99.90;;;;;;5073985;28;20477;-75
2021/09/29 06:53:58;;;;;;;9.15;3.97;;;14.50;99.90;;;;;;5076234;28;20029;-78
2021/09/29 06:56:24;;;;;;;10.68;4.63;;;14.50;99.90;;;;;;5077549;28;20387;-77
2021/09/29 06:58:52;;;;;;;5.95;4.25;;;14.40;99.90;;;;;;5076990;28;20033;-77
2021/09/29 07:01:18;;;;;;;8.27;3.80;;;14.40;99.90;;;;;;5071384;28;20035;-78
2021/09/29 07:03:46;;;;;;;8.23;3.83;;;14.50;99.90;;;;;;5076261;28;20143;-76
2021/09/29 07:06:11;;;;;;;5.55;3.08;;;14.40;99.90;;;;;;5065975;28;20032;-77
2021/09/29 07:08:37;;;;;;;7.32;4.22;;;14.40;99.90;;;;;;5072148;28;20024;-78
2021/09/29 07:11:03;;;;;;;12.25;4.45;;;14.60;99.90;;;;;;5071493;28;20031;-76
2021/09/29 07:13:29;;;;;;;6.32;3.83;;;14.60;99.90;;;;;;5076361;28;20025;-75
2021/09/29 07:15:55;;;;;;;8.35;4.47;;;14.70;99.90;;;;;;5068027;28;20017;-75
2021/09/29 07:18:27;;;;;;;8.32;4.20;;;14.80;99.90;;;;;;5050863;28;20024;-77
2021/09/29 07:20:52;;;;;;;9.55;4.18;;;14.70;99.90;;;;;;5063453;28;20028;-79
2021/09/29 07:23:18;;;;;;;8.48;4.03;;;14.80;99.90;;;;;;5066433;28;20031;-77
2021/09/29 07:25:44;;;;;;;10.15;4.45;;;14.70;99.90;;;;;;5057735;28;20529;-77
2021/09/29 07:28:09;;;;;;;6.70;3.88;;;14.80;99.90;;;;;;5064519;28;20385;-81
2021/09/29 07:30:35;;;;;;;9.10;3.53;;;14.70;99.90;;;;;;5068630;28;20031;-81
2021/09/29 07:33:04;;;;;;;6.35;4.15;;;14.70;99.90;;;;;;5066039;28;20104;-82
2021/09/29 07:35:31;;;;;;;8.52;4.32;;;14.60;99.90;;;;;;5065151;28;20015;-82
2021/09/29 07:37:57;;;;;;;7.30;4.75;;;14.60;99.90;;;;;;5072321;28;20028;-81
2021/09/29 07:40:23;;;;;;;10.52;4.18;;;14.60;99.90;;;;;;5069378;28;20097;-81
2021/09/29 07:42:48;;;;;;;7.85;4.50;;;14.80;99.90;;;;;;5066689;28;20493;-74
2021/09/29 07:45:14;;;;;;;8.55;4.88;;;14.80;99.90;;;;;;5067696;28;20504;-79
2021/09/29 07:47:40;;;;;;;11.95;5.03;;;14.80;99.90;;;;;;5062419;28;20033;-81
2021/09/29 07:50:07;;;;;;;8.23;4.45;;;14.90;99.90;;;;;;5069691;28;20685;-81
2021/09/29 07:52:34;;;;;;;8.73;4.22;;;14.80;99.90;;;;;;5069363;28;20017;-81
2021/09/29 07:54:59;;;;;;;7.15;4.35;;;14.80;99.90;;;;;;5070429;28;20417;-74
2021/09/29 07:57:25;;;;;;;7.95;4.35;;;14.90;99.90;;;;;;5071577;28;20017;-80
2021/09/29 07:59:51;;;;;;;13.20;4.78;;;14.90;99.90;;;;;;5071954;28;20425;-81
2021/09/29 08:02:16;;;;;;;8.73;4.43;;;15.00;99.90;;;;;;5073067;28;20080;-81
2021/09/29 08:04:42;;;;;;;6.50;3.95;;;15.00;99.90;;;;;;5073137;28;20385;-81
2021/09/29 08:07:08;;;;;;;6.35;3.95;;;15.00;99.90;;;;;;5072906;28;20691;-77
2021/09/29 08:09:34;;;;;;;10.15;3.58;;;15.10;99.90;;;;;;5072838;28;20066;-81
2021/09/29 08:11:59;;;;;;;9.73;3.35;;;15.00;99.90;;;;;;5072246;28;20021;-80
2021/09/29 08:14:25;;;;;;;6.10;3.38;;;14.90;99.90;;;;;;5073185;28;20028;-84
2021/09/29 08:16:51;;;;;;;5.25;3.42;;;15.00;99.90;;;;;;5069401;28;20069;-82
2021/09/29 08:19:16;;;;;;;8.07;3.40;;;14.90;99.90;;;;;;5064823;28;20047;-78
2021/09/29 08:21:47;;;;;;;7.57;3.28;;;14.90;99.90;;;;;;5071401;28;20029;-82
2021/09/29 08:24:23;;;;;;;9.45;3.75;;;14.90;99.90;;;;;;5067120;28;20028;-73
2021/09/29 08:34:33;;;;;;;3.75;2.58;;;14.90;99.90;;;;;;5078712;28;20494;-80
2021/09/29 08:37:06;;;;;;;4.30;3.30;;;15.00;99.90;;;;;;5065803;28;20024;-80
2021/09/29 08:39:42;;;;;;;4.32;2.72;;;15.10;99.90;;;;;;5069113;28;20024;-79
2021/09/29 08:44:46;;;;;;;6.35;2.60;;;14.90;99.90;;;;;;5072061;28;20488;-79
2021/09/29 08:47:19;;;;;;;4.40;2.35;;;14.90;99.90;;;;;;5067108;28;20020;-78
2021/09/29 09:16:40;;;;;;;2.60;1.15;;;15.10;99.90;;;;;;5064887;28;20047;-79
2021/09/29 09:19:13;;;;;;;3.20;1.15;;;15.10;99.90;;;;;;5071946;28;20028;-78
2021/09/29 09:21:52;;;;;;;4.03;1.38;;;15.10;99.90;;;;;;5067922;28;20035;-79
2021/09/29 09:24:24;;;;;;;2.72;1.60;;;15.20;99.90;;;;;;5067164;28;20472;-77
2021/09/29 09:27:10;;;;;;;3.00;1.42;;;15.30;99.90;;;;;;5062853;28;20143;-80
2021/09/29 09:29:46;;;;;;;6.18;1.40;;;15.20;99.90;;;;;;5074598;28;20068;-81
2021/09/29 09:32:16;;;;;;;4.38;1.45;;;15.20;99.90;;;;;;5071346;28;20039;-82
2021/09/29 09:34:42;;;;;;;3.72;1.45;;;15.10;99.90;;;;;;5074457;28;20357;-78
2021/09/29 09:37:09;;;;;;;1.75;1.58;;;15.10;99.90;;;;;;5082256;28;20031;-78
2021/09/29 09:39:35;;;;;;;4.50;1.67;;;15.20;99.90;;;;;;5079259;28;20020;-74
2021/09/29 09:42:03;;;;;;;3.80;2.03;;;15.30;99.90;;;;;;5078060;28;20138;-74
2021/09/29 09:44:31;;;;;;;3.15;1.60;;;15.30;99.90;;;;;;5079503;28;20044;-76
2021/09/29 09:47:04;;;;;;;2.85;1.77;;;15.30;99.90;;;;;;5077162;28;20031;-75
2021/09/29 09:49:30;;;;;;;1.73;1.63;;;15.20;99.90;;;;;;5074586;28;20035;-76
2021/09/29 09:52:01;;;;;;;3.78;2.08;;;15.30;99.90;;;;;;5078568;28;20116;-77
2021/09/29 09:54:38;;;;;;;4.30;1.58;;;15.40;99.90;;;;;;5079725;28;20135;-77
2021/09/29 09:57:18;;;;;;;2.47;2.10;;;15.30;99.90;;;;;;5073920;28;20031;-78
2021/09/29 09:59:53;;;;;;;3.55;2.00;;;15.40;99.90;;;;;;5073678;28;20477;-76
2021/09/29 10:02:20;;;;;;;5.90;2.33;;;15.40;99.90;;;;;;5071786;28;20024;-74
2021/09/29 10:04:47;;;;;;;5.03;2.35;;;15.40;99.90;;;;;;5073609;28;20028;-77
2021/09/29 10:07:14;;;;;;;3.25;2.40;;;15.40;99.90;;;;;;5074394;28;20013;-74
2021/09/29 10:12:28;;;;;;;4.28;2.70;;;15.40;99.90;;;;;;5073385;28;20023;-73
2021/09/29 10:22:49;;;;;;;5.28;2.63;;;15.30;99.90;;;;;;5080275;28;20460;-73
2021/09/29 10:23:50;;;;;;;7.50;3.38;;;15.40;99.90;;;;;;5063748;28;20047;-74
2021/09/29 10:26:25;;;;;;;4.18;2.75;;;15.50;99.90;;;;;;5065742;28;20481;-75
2021/09/29 10:29:06;;;;;;;5.22;2.72;;;15.60;99.90;;;;;;5071847;28;20598;-73
2021/09/29 10:34:06;;;;;;;8.68;3.20;;;15.60;99.90;;;;;;5071357;28;20032;-74
2021/09/29 11:27:13;;;;;;;8.02;3.08;;;16.30;99.90;;;;;;5071422;28;20047;-76
2021/09/29 11:31:24;;;;;;;2.65;1.60;;;16.70;99.90;;;;;;5073635;28;20056;-76
2021/09/29 11:34:12;;;;;;;2.80;1.35;;;16.60;99.90;;;;;;5071774;28;20032;-78
2021/09/29 11:37:01;;;;;;;3.55;0.60;;;16.30;99.90;;;;;;5069615;28;20133;-79
2021/09/29 12:12:17;;;;;;;5.25;1.00;;;14.30;99.90;;;;;;5068432;28;20610;-77
2021/09/29 12:15:00;;;;;;;6.22;1.30;;;14.30;99.90;;;;;;5076561;28;20024;-78
2021/09/29 12:17:31;;;;;;;6.38;1.48;;;14.40;99.90;;;;;;5068830;28;20069;-78
2021/09/29 12:19:59;;;;;;;4.57;1.27;;;14.60;99.90;;;;;;5072341;28;20036;-78
2021/09/29 12:22:29;;;;;;;3.47;1.23;;;14.60;99.90;;;;;;5075714;28;20035;-78
2021/09/29 12:25:10;;;;;;;5.65;1.55;;;14.70;99.90;;;;;;5069965;28;20621;-78
2021/09/29 12:27:48;;;;;;;4.20;1.20;;;14.80;99.90;;;;;;5070764;28;20028;-78
2021/09/29 12:30:32;;;;;;;6.90;1.83;;;14.90;99.90;;;;;;5054589;28;20052;-78
2021/09/29 12:33:10;;;;;;;7.30;1.20;;;15.00;99.90;;;;;;5069629;28;20028;-79
2021/09/29 12:38:03;;;;;;;5.32;1.45;;;15.10;99.90;;;;;;5075334;28;20381;-78
2021/09/29 12:40:32;;;;;;;7.13;2.50;;;15.10;99.90;;;;;;5064342;28;20091;-77
2021/09/29 12:43:04;;;;;;;5.35;1.73;;;15.00;99.90;;;;;;5069467;28;20021;-77
2021/09/29 12:45:33;;;;;;;10.17;2.23;;;15.10;99.90;;;;;;5071282;28;20024;-77
2021/09/29 12:48:04;;;;;;;6.50;2.15;;;15.20;99.90;;;;;;5067451;28;20666;-77
2021/09/29 12:50:40;;;;;;;7.18;2.13;;;15.40;99.90;;;;;;5068533;28;20078;-77
2021/09/29 12:53:23;;;;;;;7.32;1.80;;;15.50;99.90;;;;;;5074159;28;20025;-77
2021/09/29 12:56:32;;;;;;;6.70;1.75;;;15.60;99.90;;;;;;5063890;28;20032;-77
2021/09/29 12:58:39;;;;;;;4.60;1.38;;;15.80;99.90;;;;;;5066837;28;20040;-77
2021/09/29 13:01:04;;;;;;;9.85;1.63;;;16.00;99.90;;;;;;5076173;28;20031;-77
2021/09/29 13:03:30;;;;;;;7.22;2.10;;;16.00;99.90;;;;;;5067047;28;20031;-77
2021/09/29 13:05:58;;;;;;;3.70;1.85;;;16.00;99.90;;;;;;5076771;28;20385;-78
2021/09/29 13:08:24;;;;;;;6.55;1.75;;;15.90;99.90;;;;;;5069132;28;20105;-78
2021/09/29 13:10:50;;;;;;;4.70;1.42;;;15.90;99.90;;;;;;5075485;28;20108;-78
2021/09/29 13:13:17;;;;;;;6.80;1.38;;;15.90;99.90;;;;;;5076312;28;20107;-78
2021/09/29 13:15:46;;;;;;;6.97;1.70;;;15.90;99.90;;;;;;5073520;28;20078;-77
2021/09/29 13:18:22;;;;;;;7.25;1.45;;;16.00;99.90;;;;;;5071994;28;20511;-78
2021/09/29 13:20:55;;;;;;;7.72;1.00;;;16.10;99.90;;;;;;5079948;28;20029;-77
2021/09/29 13:36:38;;;;;;;2.53;1.08;;;15.10;99.90;;;;;;5075955;28;20035;-77
2021/09/29 13:39:13;;;;;;;4.40;1.08;;;15.20;99.90;;;;;;5076464;28;20656;-77
2021/09/29 13:41:40;;;;;;;4.03;1.25;;;15.40;99.90;;;;;;5070762;28;20542;-77
2021/09/29 13:44:07;;;;;;;5.10;1.25;;;15.40;99.90;;;;;;5073968;28;20036;-76
2021/09/29 13:46:33;;;;;;;3.75;1.08;;;15.70;99.90;;;;;;5072382;28;20025;-75
2021/09/29 13:49:01;;;;;;;4.88;1.30;;;15.60;99.90;;;;;;5077998;28;20065;-76
2021/09/29 13:51:29;;;;;;;4.55;0.90;;;15.70;99.90;;;;;;5073454;28;20037;-76
2021/09/29 13:53:55;;;;;;;2.97;1.10;;;15.80;99.90;;;;;;5074959;28;20020;-75
2021/09/29 13:56:25;;;;;;;3.33;1.00;;;15.80;99.90;;;;;;5076379;28;20109;-77
2021/09/29 14:02:06;;;;;;;6.63;1.10;;;15.60;99.90;;;;;;5046529;28;20032;-77
2021/09/29 14:29:11;;;;;;;2.40;0.95;;;15.80;99.90;;;;;;5069981;28;20060;-75
2021/09/29 14:31:44;;;;;;;3.92;0.85;;;15.80;99.90;;;;;;5075564;28;20468;-75
2021/09/29 14:34:10;;;;;;;4.70;0.90;;;15.90;99.90;;;;;;5073075;28;20039;-77
2021/09/29 14:36:36;;;;;;;3.22;0.75;;;15.80;99.90;;;;;;5064055;28;20017;-77
2021/09/29 14:39:02;;;;;;;4.97;1.20;;;15.70;99.90;;;;;;5078585;28;20435;-76
2021/09/29 14:41:28;;;;;;;1.42;0.70;;;15.50;99.90;;;;;;5074570;28;20032;-76
2021/09/29 14:43:55;;;;;;;3.28;0.98;;;15.50;99.90;;;;;;5080401;28;20028;-79
2021/09/29 14:46:21;;;;;;;2.75;0.95;;;15.40;99.90;;;;;;5078670;28;20036;-76
2021/09/29 14:48:47;;;;;;;4.00;0.90;;;15.50;99.90;;;;;;5075437;28;20028;-75
2021/09/29 14:51:12;;;;;;;4.32;0.77;;;15.60;99.90;;;;;;5071608;28;20047;-77
2021/09/29 14:53:39;;;;;;;4.72;1.00;;;15.60;99.90;;;;;;5074458;28;20029;-77
2021/09/29 14:56:07;;;;;;;1.95;0.77;;;15.50;99.90;;;;;;5063913;28;20055;-78
2021/09/29 14:58:34;;;;;;;1.45;0.60;;;15.60;99.90;;;;;;5063812;28;20029;-84
2021/09/29 15:01:00;;;;;;;4.13;0.90;;;15.30;99.90;;;;;;5079721;28;20055;-81
2021/09/29 15:03:26;;;;;;;4.43;0.70;;;15.40;99.90;;;;;;5071910;28;20024;-80
2021/09/29 15:05:54;;;;;;;2.30;0.52;;;15.40;99.90;;;;;;5074016;28;20035;-81
2021/09/29 15:08:20;;;;;;;2.70;1.00;;;15.50;99.90;;;;;;5075364;28;20017;-79
2021/09/29 15:10:46;;;;;;;5.93;0.63;;;15.50;99.90;;;;;;5073170;28;20135;-81
2021/09/29 15:13:14;;;;;;;8.60;1.13;;;15.50;99.90;;;;;;5073574;28;20535;-81
2021/09/29 15:15:53;;;;;;;4.75;1.10;;;15.60;99.90;;;;;;5071373;28;20127;-79
2021/09/29 15:18:24;;;;;;;5.47;0.90;;;15.60;99.90;;;;;;5068291;28;20037;-77
2021/09/29 15:31:54;;;;;;;3.05;0.80;;;15.70;99.90;;;;;;5068690;28;20035;-78
2021/09/29 15:48:08;;;;;;;3.05;1.10;;;15.40;99.90;;;;;;5066051;28;20190;-79
2021/09/29 15:55:57;;;;;;;2.80;0.80;;;15.40;99.90;;;;;;5066099;28;20029;-81
2021/09/29 15:58:42;;;;;;;4.43;1.33;;;15.30;99.90;;;;;;5072489;28;20081;-82
2021/09/29 16:02:09;;;;;;;7.03;2.00;;;15.30;99.90;;;;;;5064785;28;20055;-79
2021/09/29 16:17:35;;;;;;;2.60;0.90;;;14.80;99.90;;;;;;5065247;28;20073;-82
2021/09/29 16:30:37;;;;;;;2.65;0.43;;;14.60;99.90;;;;;;5068498;28;20048;-79
2021/09/29 16:35:52;;;;;;;3.17;0.50;;;14.60;99.90;;;;;;5054135;28;20028;-78
2021/09/29 16:38:18;;;;;;;2.70;0.95;;;14.40;99.90;;;;;;5069982;28;20020;-79
2021/09/29 16:40:44;;;;;;;2.15;0.65;;;14.50;99.90;;;;;;5076548;28;20031;-79
2021/09/29 16:43:10;;;;;;;2.50;1.05;;;14.50;99.90;;;;;;5053869;28;20040;-79
2021/09/29 16:45:37;;;;;;;0.98;0.50;;;14.40;99.90;;;;;;5068896;28;20033;-79